Time;durP1;ratioP1;P1;durP2;ratioP2;P2;SDS_P1;SDS_P2;PMS_P1;PMS_P2;Temp;Humidity;BMP_temperature;BMP_pressure;BME280_temperature;BME280_humidity;BME280_pressure;Samples;Min_cycle;Max_cycle;Signal;HPM_P1;HPM_P2
2022/12/16 00:01:28;;;;;;;75.87;46.67;;;-2.40;99.90;;;;;;5038964;28;20438;-87
2022/12/16 00:04:16;;;;;;;71.73;42.70;;;-2.40;99.90;;;;;;5040102;28;20418;-84
2022/12/16 00:07:19;;;;;;;70.43;42.80;;;-2.20;99.90;;;;;;5040701;28;20445;-84
2022/12/16 00:09:52;;;;;;;71.00;42.10;;;-2.30;99.90;;;;;;5039482;28;20441;-83
2022/12/16 00:12:25;;;;;;;65.50;40.20;;;-2.30;99.90;;;;;;5034338;28;20437;-85
2022/12/16 00:14:58;;;;;;;86.85;59.78;;;-2.30;99.90;;;;;;5038503;28;20409;-86
2022/12/16 00:18:08;;;;;;;70.70;43.20;;;-2.20;99.90;;;;;;5039893;28;20230;-83
2022/12/16 00:20:49;;;;;;;62.50;40.57;;;-2.10;99.90;;;;;;5039395;28;20445;-84
2022/12/16 00:23:34;;;;;;;68.47;41.03;;;-2.10;99.90;;;;;;5039679;28;20456;-82
2022/12/16 00:26:22;;;;;;;66.20;40.37;;;-1.90;99.90;;;;;;5039910;28;20441;-88
2022/12/16 00:29:24;;;;;;;76.43;40.13;;;-2.10;99.90;;;;;;5039817;28;20413;-84
2022/12/16 00:32:16;;;;;;;64.33;37.27;;;-2.00;99.90;;;;;;5039373;28;20433;-84
2022/12/16 00:34:50;;;;;;;67.30;40.10;;;-2.00;99.90;;;;;;5039316;28;20461;-81
2022/12/16 00:37:27;;;;;;;69.80;40.63;;;-2.20;99.90;;;;;;5039652;28;20488;-85
2022/12/16 00:40:03;;;;;;;72.53;42.23;;;-2.20;99.90;;;;;;5039457;28;20469;-83
2022/12/16 00:42:46;;;;;;;69.30;41.33;;;-2.30;99.90;;;;;;5039304;28;20445;-84
2022/12/16 00:45:38;;;;;;;69.93;40.20;;;-2.50;99.90;;;;;;5040043;28;20421;-82
2022/12/16 00:48:17;;;;;;;66.07;39.90;;;-2.70;99.90;;;;;;5039234;28;20473;-83
2022/12/16 00:50:59;;;;;;;67.37;39.73;;;-2.70;99.90;;;;;;5039532;28;20505;-82
2022/12/16 00:53:49;;;;;;;66.40;39.77;;;-3.00;99.90;;;;;;5039540;28;20457;-82
2022/12/16 00:56:30;;;;;;;62.37;39.93;;;-2.90;99.90;;;;;;5039192;28;20461;-85
2022/12/16 00:59:21;;;;;;;59.13;37.63;;;-2.80;99.90;;;;;;5039174;28;20453;-84
2022/12/16 01:01:54;;;;;;;64.03;37.40;;;-2.80;99.90;;;;;;5036681;28;20450;-82
2022/12/16 01:04:50;;;;;;;65.87;37.17;;;-2.90;99.90;;;;;;5036928;28;20512;-81
2022/12/16 01:07:36;;;;;;;65.90;36.67;;;-2.80;99.90;;;;;;5038865;28;20445;-81
2022/12/16 01:10:14;;;;;;;68.03;38.77;;;-3.10;99.90;;;;;;5038721;28;20432;-83
2022/12/16 01:12:48;;;;;;;64.80;38.37;;;-3.10;99.90;;;;;;5037490;28;20461;-84
2022/12/16 01:15:17;;;;;;;69.07;36.60;;;-3.00;99.90;;;;;;5038428;28;20452;-84
2022/12/16 01:17:50;;;;;;;69.23;39.33;;;-3.00;99.90;;;;;;5038640;28;20476;-83
2022/12/16 01:20:18;;;;;;;69.77;36.80;;;-3.00;99.90;;;;;;5038202;28;20517;-82
2022/12/16 01:22:48;;;;;;;67.53;38.33;;;-2.80;99.90;;;;;;5037882;28;20460;-86
2022/12/16 01:25:25;;;;;;;64.20;37.23;;;-2.70;99.90;;;;;;5038057;28;20437;-81
2022/12/16 01:27:59;;;;;;;66.60;37.80;;;-2.90;99.90;;;;;;5038655;28;20464;-83
2022/12/16 01:30:49;;;;;;;61.37;36.40;;;-3.00;99.90;;;;;;5037730;28;20468;-84
2022/12/16 01:33:19;;;;;;;69.17;38.57;;;-3.10;99.90;;;;;;5035653;28;20433;-82
2022/12/16 01:36:00;;;;;;;67.00;36.93;;;-3.30;99.90;;;;;;5036232;28;20462;-82
2022/12/16 01:38:35;;;;;;;66.37;37.63;;;-3.20;99.90;;;;;;5034454;28;20548;-81
2022/12/16 01:41:03;;;;;;;74.72;54.10;;;-3.50;99.90;;;;;;5034798;28;20404;-81
2022/12/16 01:43:38;;;;;;;65.10;41.00;;;-3.30;99.90;;;;;;5035038;28;20256;-81
2022/12/16 01:46:29;;;;;;;63.87;39.20;;;-3.10;99.90;;;;;;5035871;28;20477;-82
2022/12/16 01:49:34;;;;;;;65.50;38.03;;;-3.00;99.90;;;;;;5035729;28;20505;-82
2022/12/16 01:52:24;;;;;;;59.23;36.40;;;-2.80;99.90;;;;;;5035164;28;20492;-81
2022/12/16 01:54:58;;;;;;;63.63;35.13;;;-2.90;99.90;;;;;;5035467;28;20433;-81
2022/12/16 01:57:56;;;;;;;60.37;35.20;;;-2.80;99.90;;;;;;5035659;28;20456;-85
2022/12/16 02:00:25;;;;;;;62.33;33.93;;;-2.70;99.90;;;;;;5035425;28;20457;-84
2022/12/16 02:02:55;;;;;;;61.97;35.73;;;-2.90;99.90;;;;;;5034618;28;20432;-85
2022/12/16 02:05:23;;;;;;;58.17;34.63;;;-2.70;99.90;;;;;;5034716;28;20440;-82
2022/12/16 02:08:04;;;;;;;66.47;37.17;;;-2.90;99.90;;;;;;5035356;28;20458;-82
2022/12/16 02:10:47;;;;;;;60.53;32.40;;;-3.00;99.90;;;;;;5034582;28;20441;-84
2022/12/16 02:13:28;;;;;;;58.57;33.93;;;-2.90;99.90;;;;;;5035445;28;20489;-82
2022/12/16 02:16:16;;;;;;;56.53;33.83;;;-3.00;99.90;;;;;;5035981;28;20433;-83
2022/12/16 02:19:00;;;;;;;58.10;34.70;;;-3.00;99.90;;;;;;5036746;28;20499;-86
2022/12/16 02:21:48;;;;;;;56.73;35.43;;;-2.90;99.90;;;;;;5036445;28;20484;-85
2022/12/16 02:25:11;;;;;;;57.03;34.73;;;-2.80;99.90;;;;;;5035839;28;20484;-83
2022/12/16 02:28:00;;;;;;;62.47;34.97;;;-2.70;99.90;;;;;;5036901;28;20449;-86
2022/12/16 02:31:11;;;;;;;62.23;35.77;;;-2.60;99.90;;;;;;5037113;28;20425;-83
2022/12/16 02:34:08;;;;;;;55.23;33.13;;;-2.60;99.90;;;;;;5037082;28;20422;-84
2022/12/16 02:36:50;;;;;;;52.40;32.43;;;-2.90;99.90;;;;;;5037370;28;20510;-82
2022/12/16 02:39:23;;;;;;;70.63;50.95;;;-2.70;99.90;;;;;;5036670;28;20524;-85
2022/12/16 02:41:56;;;;;;;61.63;38.23;;;-2.40;99.90;;;;;;5032273;28;20668;-81
2022/12/16 02:44:53;;;;;;;54.17;34.77;;;-2.20;99.90;;;;;;5030431;28;20433;-81
2022/12/16 02:47:54;;;;;;;57.60;34.03;;;-2.00;99.90;;;;;;5033431;28;20437;-82
2022/12/16 02:50:49;;;;;;;55.80;32.53;;;-2.10;99.90;;;;;;5038083;28;20436;-82
2022/12/16 02:53:36;;;;;;;56.70;33.33;;;-1.80;99.90;;;;;;5018279;28;20461;-81
2022/12/16 02:56:24;;;;;;;52.57;32.87;;;-1.70;99.90;;;;;;5014107;28;20498;-81
2022/12/16 02:59:08;;;;;;;53.90;32.40;;;-1.60;99.90;;;;;;5011359;28;20474;-81
2022/12/16 03:01:48;;;;;;;48.20;30.53;;;-1.60;99.90;;;;;;5008487;28;20513;-80
2022/12/16 03:04:32;;;;;;;47.90;29.80;;;-1.50;99.90;;;;;;5009360;28;20434;-80
2022/12/16 03:07:04;;;;;;;63.85;37.72;;;-1.40;99.90;;;;;;5010306;28;20443;-80
2022/12/16 03:09:39;;;;;;;57.33;33.73;;;-1.30;99.90;;;;;;5028245;28;20252;-83
2022/12/16 03:12:35;;;;;;;53.90;34.23;;;-1.40;99.90;;;;;;5026314;28;20445;-81
2022/12/16 03:15:11;;;;;;;59.37;35.07;;;-1.30;99.90;;;;;;5021761;28;20449;-80
2022/12/16 03:17:46;;;;;;;53.63;33.30;;;-1.30;99.90;;;;;;5008564;28;20978;-81
2022/12/16 03:20:25;;;;;;;51.63;31.43;;;-1.30;99.90;;;;;;5023945;28;20448;-81
2022/12/16 03:23:00;;;;;;;49.37;32.13;;;-1.20;99.90;;;;;;5030853;28;20449;-82
2022/12/16 03:25:45;;;;;;;52.17;32.50;;;-1.30;99.90;;;;;;5031226;28;20460;-81
2022/12/16 03:28:28;;;;;;;54.30;33.53;;;-1.30;99.90;;;;;;5031345;28;20517;-81
2022/12/16 03:31:20;;;;;;;50.43;31.10;;;-1.30;99.90;;;;;;5030259;28;20465;-81
2022/12/16 03:34:15;;;;;;;50.83;31.70;;;-1.20;99.90;;;;;;5030925;28;20465;-81
2022/12/16 03:36:57;;;;;;;53.97;37.53;;;-1.20;99.90;;;;;;5029176;28;20519;-82
2022/12/16 03:39:29;;;;;;;51.17;30.50;;;-1.10;99.90;;;;;;5031863;28;20207;-81
2022/12/16 03:41:58;;;;;;;52.20;29.93;;;-1.00;99.90;;;;;;5032072;28;20496;-81
2022/12/16 03:50:24;;;;;;;40.83;26.87;;;-0.60;99.90;;;;;;5030087;28;20811;-81
2022/12/16 03:53:40;;;;;;;43.50;26.17;;;-0.40;99.90;;;;;;5029801;28;20452;-80
2022/12/16 03:56:25;;;;;;;41.80;25.53;;;-0.20;99.90;;;;;;5029688;28;20496;-80
2022/12/16 03:59:20;;;;;;;37.80;23.53;;;0.00;99.90;;;;;;5036573;28;20600;-81
2022/12/16 04:01:53;;;;;;;47.30;26.07;;;0.10;99.90;;;;;;5037128;28;20433;-81
2022/12/16 04:04:21;;;;;;;40.07;24.47;;;0.10;99.90;;;;;;5036319;28;20861;-81
2022/12/16 04:07:22;;;;;;;53.05;37.08;;;0.20;99.90;;;;;;5034186;28;20467;-82
2022/12/16 04:09:52;;;;;;;39.63;27.73;;;0.30;99.90;;;;;;5033626;28;20199;-81
2022/12/16 04:24:55;;;;;;;45.57;24.47;;;0.50;99.90;;;;;;5040815;28;20421;-81
2022/12/16 04:27:52;;;;;;;47.60;26.90;;;0.80;99.90;;;;;;5039518;28;20496;-82
2022/12/16 04:31:05;;;;;;;42.00;26.17;;;0.70;99.90;;;;;;5039886;28;20450;-80
